Terminal Aerodrome Forecast
Issued by NWS Springfield, MO

Home | Current Version | Previous Version | Text Only | Print | Product List | Glossary On
Versions: 1 2 3 4 5 6 7 8 9 10 11 12 13 14 15 16 17 18 19 20 21 22 23 24 25 26 27 28 29 30
000
FTUS43 KSGF 252000 AAA
TAFSGF
TAF AMD
KSGF 252037Z 2521/2618 15012KT P6SM FEW025 BKN035
      TEMPO 2521/2523 -SHRA BKN025
     FM260300 17010KT 6SM -SHRA VCTS SCT020 BKN035CB
     FM260900 17008KT 4SM -SHRA BR OVC004
     FM261600 23007KT P6SM BKN015=

USA.gov is the U.S. government's official web portal to all federal, state and local government web resources and services.